createdAt,value
2022-12-08T00:01:22.867Z,14.23
2022-12-08T00:03:51.183Z,13.38
2022-12-08T00:06:49.315Z,12.85
2022-12-08T00:09:24.442Z,13.32
2022-12-08T00:11:53.016Z,12.23
2022-12-08T00:14:20.534Z,13.13
2022-12-08T00:16:47.652Z,14.27
2022-12-08T00:19:14.700Z,12.20
2022-12-08T00:21:41.674Z,14.00
2022-12-08T00:24:08.937Z,13.63
2022-12-08T00:26:37.258Z,13.13
2022-12-08T00:29:05.132Z,13.15
2022-12-08T00:31:32.235Z,12.85
2022-12-08T00:33:59.739Z,13.98
2022-12-08T00:36:27.445Z,12.63
2022-12-08T00:38:54.440Z,12.57
2022-12-08T00:41:42.012Z,13.35
2022-12-08T00:44:10.299Z,12.52
2022-12-08T00:46:37.319Z,13.02
2022-12-08T00:49:05.573Z,12.88
2022-12-08T00:51:33.439Z,12.20
2022-12-08T00:54:00.511Z,13.05
2022-12-08T00:56:27.821Z,12.68
2022-12-08T00:58:55.159Z,12.85
2022-12-08T01:01:22.615Z,12.90
2022-12-08T01:03:49.872Z,13.40
2022-12-08T01:06:17.054Z,13.57
2022-12-08T01:08:44.510Z,12.57
2022-12-08T01:11:14.500Z,12.75
2022-12-08T01:13:42.105Z,12.60
2022-12-08T01:16:09.609Z,12.15
2022-12-08T01:18:36.937Z,12.45
2022-12-08T01:21:09.915Z,12.85
2022-12-08T01:23:36.920Z,12.80
2022-12-08T01:26:05.927Z,14.82
2022-12-08T01:28:33.147Z,13.05
2022-12-08T01:31:01.854Z,14.30
2022-12-08T01:33:29.578Z,15.05
2022-12-08T01:35:56.526Z,13.73
2022-12-08T01:38:23.745Z,13.65
2022-12-08T01:40:50.673Z,12.77
2022-12-08T01:43:20.098Z,13.40
2022-12-08T01:45:47.936Z,12.90
2022-12-08T01:48:27.298Z,13.65
2022-12-08T01:50:55.963Z,12.88
2022-12-08T01:53:28.573Z,12.93
2022-12-08T01:56:03.667Z,14.00
2022-12-08T01:58:39.227Z,13.27
2022-12-08T02:01:06.732Z,13.20
2022-12-08T02:03:59.414Z,12.50
2022-12-08T02:06:33.007Z,14.27
2022-12-08T02:09:01.793Z,13.80
2022-12-08T02:11:29.090Z,12.93
2022-12-08T02:13:57.494Z,12.63
2022-12-08T02:16:43.054Z,12.32
2022-12-08T02:19:30.261Z,13.00
2022-12-08T02:22:02.316Z,12.95
2022-12-08T02:24:32.186Z,13.27
2022-12-08T02:27:29.931Z,12.93
2022-12-08T02:30:08.388Z,12.93
2022-12-08T02:33:05.997Z,13.73
2022-12-08T02:35:45.239Z,13.60
2022-12-08T02:38:23.987Z,12.68
2022-12-08T02:41:07.381Z,13.32
2022-12-08T02:43:53.603Z,14.10
2022-12-08T02:46:38.386Z,13.00
2022-12-08T02:49:07.103Z,13.50
2022-12-08T02:51:34.083Z,13.30
2022-12-08T02:54:02.569Z,13.77
2022-12-08T02:56:35.435Z,12.77
2022-12-08T02:59:20.475Z,12.65
2022-12-08T03:02:02.540Z,12.68
2022-12-08T03:04:50.956Z,13.63
2022-12-08T03:07:49.990Z,13.38
2022-12-08T03:10:31.571Z,12.50
2022-12-08T03:13:26.111Z,12.32
2022-12-08T03:15:55.282Z,12.27
2022-12-08T03:18:27.359Z,12.48
2022-12-08T03:20:54.696Z,12.80
2022-12-08T03:23:24.485Z,12.18
2022-12-08T03:26:18.671Z,12.85
2022-12-08T03:28:46.277Z,12.57
2022-12-08T03:31:17.202Z,11.85
2022-12-08T03:33:49.996Z,13.00
2022-12-08T03:36:17.785Z,14.10
2022-12-08T03:38:46.026Z,12.23
2022-12-08T03:41:19.076Z,12.55
2022-12-08T03:43:58.382Z,12.65
2022-12-08T03:48:54.320Z,13.43
2022-12-08T03:51:22.316Z,13.05
2022-12-08T03:53:49.734Z,12.30
2022-12-08T03:56:24.456Z,12.70
2022-12-08T03:58:51.888Z,11.00
2022-12-08T04:01:19.223Z,12.90
2022-12-08T04:03:46.495Z,11.57
2022-12-08T04:06:13.550Z,11.38
2022-12-08T04:08:41.092Z,13.02
2022-12-08T04:11:11.610Z,12.50
2022-12-08T04:13:40.288Z,10.73
2022-12-08T04:16:08.714Z,11.68
2022-12-08T04:18:36.222Z,10.63
2022-12-08T04:21:03.330Z,10.93
2022-12-08T04:23:30.307Z,11.93
2022-12-08T04:25:57.247Z,11.95
2022-12-08T04:28:24.319Z,11.32
2022-12-08T04:30:51.277Z,12.13
2022-12-08T04:33:18.270Z,11.05
2022-12-08T04:35:45.401Z,11.02
2022-12-08T04:38:12.436Z,10.60
2022-12-08T04:40:39.768Z,10.15
2022-12-08T04:43:07.154Z,9.95
2022-12-08T04:45:34.267Z,10.10
2022-12-08T04:48:02.084Z,10.90
2022-12-08T04:50:29.122Z,10.88
2022-12-08T04:52:56.113Z,11.55
2022-12-08T04:55:23.056Z,10.07
2022-12-08T04:57:50.483Z,9.60
2022-12-08T05:00:17.694Z,10.38
2022-12-08T05:02:44.749Z,10.80
2022-12-08T05:05:11.808Z,11.02
2022-12-08T05:07:38.863Z,9.35
2022-12-08T05:10:06.946Z,10.70
2022-12-08T05:12:34.066Z,11.55
2022-12-08T05:15:01.069Z,12.10
2022-12-08T05:17:28.143Z,12.25
2022-12-08T05:19:55.109Z,13.55
2022-12-08T05:22:22.177Z,11.93
2022-12-08T05:24:49.192Z,11.43
2022-12-08T05:27:16.244Z,12.32
2022-12-08T05:29:43.295Z,12.80
2022-12-08T05:32:10.387Z,11.18
2022-12-08T05:34:37.338Z,11.88
2022-12-08T05:37:04.666Z,12.35
2022-12-08T05:39:31.705Z,12.25
2022-12-08T05:41:59.590Z,13.13
2022-12-08T05:44:26.632Z,11.68
2022-12-08T05:46:53.700Z,13.48
2022-12-08T05:49:20.636Z,15.38
2022-12-08T05:51:47.628Z,13.55
2022-12-08T05:54:14.610Z,15.35
2022-12-08T05:56:41.731Z,16.42
2022-12-08T05:59:09.088Z,17.42
2022-12-08T06:01:37.728Z,16.50
2022-12-08T06:04:05.626Z,15.13
2022-12-08T06:06:35.062Z,13.95
2022-12-08T06:09:06.089Z,17.65
2022-12-08T06:11:33.699Z,14.30
2022-12-08T06:14:01.078Z,14.70
2022-12-08T06:16:29.453Z,14.52
2022-12-08T06:18:56.902Z,14.40
2022-12-08T06:21:24.411Z,13.45
2022-12-08T06:23:53.318Z,12.52
2022-12-08T06:26:21.097Z,13.77
2022-12-08T06:28:49.321Z,12.93
2022-12-08T06:31:24.749Z,12.35
2022-12-08T06:33:53.070Z,13.90
2022-12-08T06:36:23.345Z,13.05
2022-12-08T06:38:50.603Z,13.65
2022-12-08T06:41:17.968Z,13.43
2022-12-08T06:43:45.415Z,12.55
2022-12-08T06:46:15.530Z,14.60
2022-12-08T06:48:43.256Z,17.45
2022-12-08T06:51:12.926Z,14.95
2022-12-08T06:53:40.608Z,15.00
2022-12-08T06:56:08.634Z,14.60
2022-12-08T06:58:36.003Z,14.80
2022-12-08T07:01:10.730Z,12.95
2022-12-08T07:03:38.710Z,13.13
2022-12-08T07:06:06.707Z,13.07
2022-12-08T07:08:34.825Z,13.95
2022-12-08T07:11:08.127Z,13.93
2022-12-08T07:13:35.313Z,12.85
2022-12-08T07:16:09.091Z,14.38
2022-12-08T07:18:36.720Z,13.63
2022-12-08T07:21:09.359Z,13.98
2022-12-08T07:23:36.929Z,14.35
2022-12-08T07:26:06.109Z,13.93
2022-12-08T07:28:34.456Z,13.90
2022-12-08T07:31:02.214Z,12.95
2022-12-08T07:33:29.808Z,12.25
2022-12-08T07:35:58.968Z,13.00
2022-12-08T07:38:26.637Z,14.98
2022-12-08T07:40:54.366Z,17.33
2022-12-08T07:43:22.679Z,18.73
2022-12-08T07:45:50.877Z,15.00
2022-12-08T07:48:18.279Z,15.45
2022-12-08T07:50:46.115Z,16.80
2022-12-08T07:53:13.951Z,17.40
2022-12-08T07:55:42.823Z,15.10
2022-12-08T07:58:10.853Z,15.73
2022-12-08T08:00:38.024Z,15.30
2022-12-08T08:03:05.341Z,15.32
2022-12-08T08:05:32.326Z,13.18
2022-12-08T08:07:59.443Z,14.23
2022-12-08T08:10:26.441Z,14.27
2022-12-08T08:12:53.467Z,14.75
2022-12-08T08:15:21.487Z,13.57
2022-12-08T08:17:52.271Z,14.00
2022-12-08T08:20:21.018Z,14.95
2022-12-08T08:22:49.040Z,15.05
2022-12-08T08:25:17.997Z,14.00
2022-12-08T08:27:46.562Z,16.65
2022-12-08T08:30:20.113Z,15.90
2022-12-08T08:32:48.888Z,14.48
2022-12-08T08:35:16.375Z,13.68
2022-12-08T08:37:48.582Z,14.60
2022-12-08T08:40:18.495Z,13.35
2022-12-08T08:42:45.530Z,13.93
2022-12-08T08:45:12.645Z,15.60
2022-12-08T08:47:39.571Z,14.50
2022-12-08T08:50:07.869Z,14.52
2022-12-08T08:52:35.088Z,15.27
2022-12-08T08:55:03.010Z,13.70
2022-12-08T08:57:29.954Z,16.95
2022-12-08T08:59:56.958Z,13.70
2022-12-08T09:02:24.047Z,14.70
2022-12-08T09:04:51.269Z,15.05
2022-12-08T09:07:18.291Z,16.83
2022-12-08T09:09:45.319Z,16.25
2022-12-08T09:12:13.309Z,17.20
2022-12-08T09:14:41.068Z,16.75
2022-12-08T09:17:09.544Z,17.58
2022-12-08T09:19:36.521Z,18.02
2022-12-08T09:22:03.697Z,18.02
2022-12-08T09:24:30.695Z,16.10
2022-12-08T09:26:57.775Z,19.20
2022-12-08T09:29:28.743Z,17.38
2022-12-08T09:34:26.546Z,15.02
2022-12-08T09:36:53.500Z,18.30
2022-12-08T09:39:20.423Z,19.67
2022-12-08T09:41:56.087Z,23.95
2022-12-08T09:44:51.462Z,25.08
2022-12-08T09:47:21.417Z,22.17
2022-12-08T09:50:22.716Z,21.27
2022-12-08T09:53:13.850Z,22.27
2022-12-08T09:55:46.461Z,23.63
2022-12-08T09:58:38.206Z,20.08
2022-12-08T10:01:05.514Z,22.83
2022-12-08T10:03:32.516Z,22.35
2022-12-08T10:06:19.381Z,25.13
2022-12-08T10:09:05.560Z,22.15
2022-12-08T10:11:54.099Z,22.70
2022-12-08T10:14:43.731Z,21.10
2022-12-08T10:17:15.918Z,22.67
2022-12-08T10:19:44.123Z,21.52
2022-12-08T10:22:36.709Z,23.88
2022-12-08T10:25:20.479Z,22.88
2022-12-08T10:27:53.282Z,23.27
2022-12-08T10:30:22.120Z,22.70
2022-12-08T10:32:52.083Z,22.20
2022-12-08T10:35:21.617Z,22.58
2022-12-08T10:37:58.688Z,22.75
2022-12-08T10:40:29.418Z,22.35
2022-12-08T10:42:58.977Z,22.42
2022-12-08T10:45:33.414Z,24.38
2022-12-08T10:48:04.737Z,22.60
2022-12-08T10:50:42.746Z,21.27
2022-12-08T10:53:09.741Z,21.25
2022-12-08T10:55:45.773Z,21.15
2022-12-08T10:58:35.860Z,21.08
2022-12-08T11:01:19.986Z,20.85
2022-12-08T11:03:57.720Z,16.38
2022-12-08T11:06:30.484Z,16.05
2022-12-08T11:09:04.060Z,14.20
2022-12-08T11:11:59.776Z,13.75
2022-12-08T11:14:33.373Z,11.82
2022-12-08T11:17:05.899Z,9.85
2022-12-08T11:19:41.623Z,10.38
2022-12-08T11:22:34.884Z,8.68
2022-12-08T11:25:07.808Z,8.40
2022-12-08T11:27:36.952Z,7.88
2022-12-08T11:30:24.275Z,8.48
2022-12-08T11:32:55.587Z,8.35
2022-12-08T11:35:40.271Z,7.85
2022-12-08T11:38:22.142Z,6.18
2022-12-08T11:41:16.389Z,4.43
2022-12-08T11:43:55.763Z,3.28
2022-12-08T11:46:34.964Z,3.40
2022-12-08T11:49:13.027Z,5.10
2022-12-08T11:51:50.630Z,6.00
2022-12-08T11:54:25.715Z,3.30
2022-12-08T11:57:01.244Z,3.20
2022-12-08T11:59:44.510Z,2.78
2022-12-08T12:02:24.282Z,2.95
2022-12-08T12:05:06.909Z,4.38
2022-12-08T12:08:06.845Z,4.07
2022-12-08T12:10:54.781Z,4.63
2022-12-08T12:13:39.970Z,3.95
2022-12-08T12:16:15.916Z,4.95
2022-12-08T12:18:50.802Z,3.97
2022-12-08T12:21:26.569Z,5.00
2022-12-08T12:23:58.491Z,4.78
2022-12-08T12:26:32.096Z,4.65
2022-12-08T12:29:13.810Z,3.78
2022-12-08T12:31:46.977Z,4.13
2022-12-08T12:34:35.341Z,4.03
2022-12-08T12:37:12.123Z,4.20
2022-12-08T12:39:50.688Z,4.13
2022-12-08T12:42:45.635Z,4.50
2022-12-08T12:45:17.764Z,4.30
2022-12-08T12:47:54.285Z,4.05
2022-12-08T12:50:32.946Z,3.75
2022-12-08T12:53:03.139Z,3.92
2022-12-08T12:55:57.147Z,3.53
2022-12-08T12:58:30.166Z,3.30
2022-12-08T13:01:15.126Z,3.20
2022-12-08T13:03:47.391Z,3.40
2022-12-08T13:06:21.422Z,3.30
2022-12-08T13:11:21.122Z,4.00
2022-12-08T13:14:03.898Z,4.22
2022-12-08T13:16:38.991Z,3.67
2022-12-08T13:19:14.373Z,3.80
2022-12-08T13:21:41.669Z,3.80
2022-12-08T13:24:14.543Z,4.32
2022-12-08T13:26:45.312Z,4.05
2022-12-08T13:29:26.428Z,3.72
2022-12-08T13:31:55.645Z,3.80
2022-12-08T13:34:46.819Z,3.35
2022-12-08T13:37:22.859Z,3.88
2022-12-08T13:39:58.309Z,3.58
2022-12-08T13:42:33.700Z,4.00
2022-12-08T13:45:33.473Z,3.63
2022-12-08T13:48:27.915Z,4.18
2022-12-08T13:57:12.232Z,3.65
2022-12-08T13:59:45.064Z,3.72
2022-12-08T14:02:33.311Z,3.30
2022-12-08T14:07:49.994Z,4.07
2022-12-08T14:10:22.000Z,4.03
2022-12-08T14:12:55.999Z,3.88
2022-12-08T14:17:55.058Z,3.88
2022-12-08T14:20:27.682Z,5.00
2022-12-08T14:22:55.445Z,4.72
2022-12-08T14:25:23.260Z,4.40
2022-12-08T14:27:56.447Z,4.95
2022-12-08T14:30:36.214Z,4.50
2022-12-08T14:33:04.965Z,4.70
2022-12-08T14:35:37.008Z,4.65
2022-12-08T14:38:14.005Z,5.15
2022-12-08T14:40:44.431Z,5.88
2022-12-08T14:43:13.570Z,4.85
2022-12-08T14:45:43.541Z,4.60
2022-12-08T14:48:24.020Z,4.40
2022-12-08T14:51:24.203Z,4.05
2022-12-08T14:54:08.722Z,4.68
2022-12-08T14:56:50.384Z,5.07
2022-12-08T14:59:35.706Z,4.35
2022-12-08T15:02:24.517Z,4.60
2022-12-08T15:05:11.269Z,4.55
2022-12-08T15:07:53.082Z,4.30
2022-12-08T15:10:29.633Z,5.35
2022-12-08T15:13:01.211Z,4.10
2022-12-08T15:15:29.718Z,4.90
2022-12-08T15:18:13.078Z,4.45
2022-12-08T15:20:45.891Z,4.53
2022-12-08T15:23:29.360Z,4.32
2022-12-08T15:25:56.891Z,5.30
2022-12-08T15:28:30.001Z,4.75
2022-12-08T15:30:58.466Z,4.65
2022-12-08T15:33:25.756Z,5.00
2022-12-08T15:35:53.493Z,4.85
2022-12-08T15:38:31.138Z,4.28
2022-12-08T15:40:58.836Z,5.40
2022-12-08T15:43:26.115Z,4.13
2022-12-08T15:45:59.691Z,4.45
2022-12-08T15:50:58.276Z,4.55
2022-12-08T15:53:25.822Z,4.25
2022-12-08T15:56:25.618Z,5.03
2022-12-08T15:58:56.945Z,5.35
2022-12-08T16:01:25.788Z,4.72
2022-12-08T16:09:32.551Z,5.00
2022-12-08T16:12:18.102Z,5.78
2022-12-08T16:17:32.749Z,6.65
2022-12-08T16:20:00.307Z,7.35
2022-12-08T16:25:23.191Z,6.57
2022-12-08T16:28:08.181Z,6.78
2022-12-08T16:30:39.922Z,7.13
2022-12-08T16:33:07.005Z,7.32
2022-12-08T16:35:34.073Z,7.28
2022-12-08T16:38:01.375Z,9.77
2022-12-08T16:40:28.664Z,12.52
2022-12-08T16:42:55.571Z,13.38
2022-12-08T16:45:28.566Z,14.75
2022-12-08T16:48:00.196Z,14.25
2022-12-08T16:50:29.345Z,14.15
2022-12-08T16:53:01.582Z,13.82
2022-12-08T16:55:28.743Z,12.30
2022-12-08T16:57:56.180Z,10.90
2022-12-08T17:00:25.567Z,11.10
2022-12-08T17:02:53.397Z,11.15
2022-12-08T17:05:22.685Z,10.13
2022-12-08T17:07:51.769Z,7.93
2022-12-08T17:10:23.166Z,8.25
2022-12-08T17:12:50.379Z,9.05
2022-12-08T17:15:20.241Z,9.90
2022-12-08T17:17:47.366Z,10.07
2022-12-08T17:20:17.891Z,8.98
2022-12-08T17:22:45.780Z,9.60
2022-12-08T17:25:12.986Z,9.55
2022-12-08T17:27:40.015Z,9.98
2022-12-08T17:30:09.849Z,10.10
2022-12-08T17:32:38.745Z,10.70
2022-12-08T17:35:06.701Z,9.80
2022-12-08T17:37:34.290Z,12.73
2022-12-08T17:40:01.415Z,11.50
2022-12-08T17:42:28.429Z,12.75
2022-12-08T17:44:55.399Z,12.25
2022-12-08T17:47:23.069Z,11.90
2022-12-08T17:49:50.082Z,11.30
2022-12-08T17:52:18.061Z,11.48
2022-12-08T17:54:45.029Z,11.02
2022-12-08T17:57:12.042Z,10.93
2022-12-08T17:59:39.024Z,10.60
2022-12-08T18:02:06.676Z,11.95
2022-12-08T18:04:33.719Z,10.32
2022-12-08T18:07:01.446Z,10.75
2022-12-08T18:09:30.999Z,11.30
2022-12-08T18:11:58.162Z,11.13
2022-12-08T18:14:25.127Z,11.57
2022-12-08T18:16:52.229Z,10.27
2022-12-08T18:19:19.451Z,11.70
2022-12-08T18:21:46.515Z,12.73
2022-12-08T18:24:19.534Z,14.07
2022-12-08T18:26:46.637Z,15.45
2022-12-08T18:29:13.631Z,13.70
2022-12-08T18:31:40.670Z,14.65
2022-12-08T18:34:07.622Z,16.10
2022-12-08T18:36:34.823Z,14.65
2022-12-08T18:39:05.830Z,14.23
2022-12-08T18:41:37.368Z,13.50
2022-12-08T18:44:04.599Z,12.07
2022-12-08T18:46:31.639Z,13.20
2022-12-08T18:48:59.477Z,11.02
2022-12-08T18:51:26.654Z,9.65
2022-12-08T18:53:53.743Z,11.82
2022-12-08T18:56:29.667Z,14.05
2022-12-08T18:59:02.896Z,15.27
2022-12-08T19:04:27.510Z,14.77
2022-12-08T19:06:53.152Z,14.23
2022-12-08T19:09:20.710Z,14.82
2022-12-08T19:11:47.787Z,14.02
2022-12-08T19:14:15.050Z,15.23
2022-12-08T19:16:42.071Z,14.25
2022-12-08T19:19:09.182Z,15.80
2022-12-08T19:21:42.937Z,13.73
2022-12-08T19:24:13.151Z,14.93
2022-12-08T19:26:40.276Z,16.17
2022-12-08T19:29:07.713Z,16.23
2022-12-08T19:31:35.142Z,16.08
2022-12-08T19:34:02.451Z,17.33
2022-12-08T19:36:35.369Z,15.70
2022-12-08T19:39:22.154Z,16.65
2022-12-08T19:42:09.003Z,15.93
2022-12-08T19:44:54.348Z,14.40
2022-12-08T19:47:24.153Z,14.93
2022-12-08T19:49:52.386Z,19.25
2022-12-08T19:52:19.454Z,20.23
2022-12-08T19:54:46.521Z,19.13
2022-12-08T19:57:13.606Z,20.90
2022-12-08T19:59:40.856Z,18.08
2022-12-08T20:02:07.989Z,18.13
2022-12-08T20:04:35.040Z,17.85
2022-12-08T20:07:02.184Z,17.27
2022-12-08T20:09:29.101Z,14.48
2022-12-08T20:11:56.083Z,18.35
2022-12-08T20:14:23.658Z,24.00
2022-12-08T20:16:51.168Z,22.08
2022-12-08T20:19:18.582Z,20.70
2022-12-08T20:21:45.978Z,20.30
2022-12-08T20:24:13.086Z,19.58
2022-12-08T20:26:40.196Z,18.77
2022-12-08T20:29:07.253Z,19.10
2022-12-08T20:31:34.476Z,19.52
2022-12-08T20:34:01.896Z,17.25
2022-12-08T20:36:29.237Z,16.10
2022-12-08T20:38:56.635Z,15.55
2022-12-08T20:41:23.924Z,14.15
2022-12-08T20:43:51.890Z,14.60
2022-12-08T20:46:20.534Z,14.05
2022-12-08T20:48:48.213Z,13.82
2022-12-08T20:51:17.490Z,14.18
2022-12-08T20:53:44.462Z,15.27
2022-12-08T20:56:17.021Z,15.30
2022-12-08T20:58:44.313Z,15.70
2022-12-08T21:01:13.099Z,16.75
2022-12-08T21:03:41.479Z,15.00
2022-12-08T21:06:08.948Z,15.68
2022-12-08T21:08:36.951Z,16.48
2022-12-08T21:11:04.988Z,13.38
2022-12-08T21:13:32.435Z,15.90
2022-12-08T21:15:59.797Z,15.13
2022-12-08T21:18:27.029Z,14.45
2022-12-08T21:21:08.595Z,14.30
2022-12-08T21:23:35.975Z,15.23
2022-12-08T21:26:09.631Z,13.80
2022-12-08T21:28:36.761Z,15.18
2022-12-08T21:31:10.850Z,17.77
2022-12-08T21:33:38.468Z,18.05
2022-12-08T21:36:09.159Z,15.57
2022-12-08T21:38:37.830Z,16.65
2022-12-08T21:41:08.241Z,14.80
2022-12-08T21:43:35.515Z,16.63
2022-12-08T21:46:03.015Z,13.45
2022-12-08T21:48:30.163Z,13.68
2022-12-08T21:51:03.229Z,13.23
2022-12-08T21:53:30.236Z,12.35
2022-12-08T21:55:57.148Z,14.65
2022-12-08T21:58:24.486Z,15.57
2022-12-08T22:00:51.497Z,15.50
2022-12-08T22:03:18.907Z,18.35
2022-12-08T22:05:46.062Z,14.57
2022-12-08T22:08:13.205Z,16.35
2022-12-08T22:10:40.634Z,16.73
2022-12-08T22:13:07.956Z,14.98
2022-12-08T22:15:37.620Z,14.95
2022-12-08T22:18:05.008Z,17.38
2022-12-08T22:20:32.457Z,17.27
2022-12-08T22:22:59.409Z,17.40
2022-12-08T22:25:26.464Z,14.68
2022-12-08T22:27:53.570Z,15.60
2022-12-08T22:30:21.513Z,12.25
2022-12-08T22:32:48.808Z,14.85
2022-12-08T22:35:15.901Z,13.65
2022-12-08T22:37:42.935Z,13.82
2022-12-08T22:40:11.268Z,12.95
2022-12-08T22:42:38.645Z,13.02
2022-12-08T22:45:06.227Z,11.68
2022-12-08T22:47:33.568Z,10.77
2022-12-08T22:50:00.863Z,14.70
2022-12-08T22:52:27.863Z,13.27
2022-12-08T22:54:54.806Z,11.20
2022-12-08T22:57:21.883Z,12.07
2022-12-08T22:59:48.985Z,14.30
2022-12-08T23:02:16.051Z,13.52
2022-12-08T23:04:43.357Z,15.02
2022-12-08T23:07:10.614Z,14.10
2022-12-08T23:09:37.843Z,15.30
2022-12-08T23:12:05.405Z,15.88
2022-12-08T23:14:32.378Z,13.77
2022-12-08T23:16:59.649Z,14.45
2022-12-08T23:19:26.819Z,14.27
2022-12-08T23:21:53.813Z,14.07
2022-12-08T23:24:20.795Z,15.07
2022-12-08T23:26:47.966Z,15.43
2022-12-08T23:29:15.416Z,14.73
2022-12-08T23:31:42.631Z,14.27
2022-12-08T23:34:10.332Z,14.20
2022-12-08T23:36:37.460Z,12.25
2022-12-08T23:39:05.253Z,12.73
2022-12-08T23:41:32.549Z,13.35
2022-12-08T23:43:59.510Z,12.50
2022-12-08T23:46:26.739Z,12.10
2022-12-08T23:48:53.810Z,16.35
2022-12-08T23:51:21.355Z,15.27
2022-12-08T23:53:48.532Z,14.30
2022-12-08T23:56:17.460Z,14.57
2022-12-08T23:58:45.533Z,13.43
